createdAt,value
2023-02-22T00:00:49.935Z,36.13
2023-02-22T00:03:24.850Z,37.23
2023-02-22T00:05:55.265Z,37.07
2023-02-22T00:08:30.240Z,37.60
2023-02-22T00:10:58.156Z,35.27
2023-02-22T00:13:29.260Z,36.23
2023-02-22T00:15:57.926Z,36.77
2023-02-22T00:18:27.879Z,36.50
2023-02-22T00:20:55.761Z,36.70
2023-02-22T00:23:25.372Z,37.90
2023-02-22T00:25:53.447Z,35.80
2023-02-22T00:28:24.085Z,36.53
2023-02-22T00:30:54.693Z,35.80
2023-02-22T00:33:22.716Z,35.70
2023-02-22T00:35:50.506Z,37.23
2023-02-22T00:38:20.213Z,37.47
2023-02-22T00:40:49.520Z,36.43
2023-02-22T00:43:17.909Z,37.40
2023-02-22T00:45:45.714Z,37.00
2023-02-22T00:48:13.559Z,37.63
2023-02-22T00:50:41.705Z,37.80
2023-02-22T00:53:10.337Z,38.17
2023-02-22T00:55:39.115Z,39.03
2023-02-22T00:58:08.863Z,39.73
2023-02-22T01:00:38.695Z,37.97
2023-02-22T01:03:07.115Z,39.27
2023-02-22T01:05:35.965Z,38.70
2023-02-22T01:08:07.500Z,37.73
2023-02-22T01:10:36.175Z,39.93
2023-02-22T01:13:08.602Z,38.43
2023-02-22T01:15:39.789Z,38.30
2023-02-22T01:18:08.290Z,37.10
2023-02-22T01:20:37.053Z,36.30
2023-02-22T01:23:08.099Z,36.23
2023-02-22T01:25:36.841Z,36.50
2023-02-22T01:28:07.581Z,32.47
2023-02-22T01:30:36.998Z,34.70
2023-02-22T01:33:08.278Z,35.03
2023-02-22T01:35:40.786Z,34.00
2023-02-22T01:38:09.683Z,33.57
2023-02-22T01:40:39.578Z,33.17
2023-02-22T01:43:17.138Z,32.77
2023-02-22T01:46:00.635Z,32.23
2023-02-22T01:48:39.265Z,29.97
2023-02-22T01:51:11.603Z,28.23
2023-02-22T01:53:44.235Z,27.83
2023-02-22T01:56:13.257Z,26.60
2023-02-22T01:58:46.210Z,24.47
2023-02-22T02:01:15.467Z,22.53
2023-02-22T02:03:45.743Z,22.03
2023-02-22T02:06:17.959Z,21.07
2023-02-22T02:08:54.311Z,22.57
2023-02-22T02:11:25.534Z,22.77
2023-02-22T02:13:55.722Z,20.80
2023-02-22T02:16:25.628Z,19.97
2023-02-22T02:18:55.659Z,20.20
2023-02-22T02:21:49.900Z,18.43
2023-02-22T02:24:50.250Z,20.43
2023-02-22T02:27:20.962Z,19.50
2023-02-22T02:30:18.209Z,22.10
2023-02-22T02:32:54.487Z,19.60
2023-02-22T02:35:33.636Z,20.57
2023-02-22T02:38:08.433Z,25.33
2023-02-22T02:40:42.078Z,19.70
2023-02-22T02:43:18.647Z,21.03
2023-02-22T02:45:50.813Z,22.50
2023-02-22T02:48:24.431Z,22.77
2023-02-22T02:50:53.707Z,22.93
2023-02-22T02:53:26.276Z,21.43
2023-02-22T02:55:54.305Z,25.70
2023-02-22T02:58:24.498Z,23.20
2023-02-22T03:00:57.586Z,24.97
2023-02-22T03:03:51.762Z,34.03
2023-02-22T03:06:41.741Z,22.63
2023-02-22T03:09:17.732Z,21.93
2023-02-22T03:11:52.761Z,22.03
2023-02-22T03:14:27.007Z,22.43
2023-02-22T03:17:05.263Z,22.03
2023-02-22T03:19:41.708Z,20.47
2023-02-22T03:22:15.193Z,21.43
2023-02-22T03:24:52.909Z,22.27
2023-02-22T03:27:27.998Z,22.87
2023-02-22T03:30:02.223Z,20.67
2023-02-22T03:32:41.457Z,21.07
2023-02-22T03:35:15.810Z,22.07
2023-02-22T03:37:47.557Z,23.27
2023-02-22T03:40:25.884Z,21.50
2023-02-22T03:42:59.158Z,22.20
2023-02-22T03:45:30.277Z,20.97
2023-02-22T03:48:04.710Z,21.67
2023-02-22T03:50:36.914Z,19.97
2023-02-22T03:53:07.412Z,18.90
2023-02-22T03:55:37.778Z,20.63
2023-02-22T03:58:10.263Z,19.30
2023-02-22T04:00:39.218Z,19.13
2023-02-22T04:03:07.058Z,17.60
2023-02-22T04:05:36.275Z,18.33
2023-02-22T04:08:04.065Z,17.77
2023-02-22T04:10:33.465Z,17.13
2023-02-22T04:13:01.619Z,18.43
2023-02-22T04:15:29.956Z,17.27
2023-02-22T04:18:04.605Z,15.43
2023-02-22T04:20:32.597Z,17.00
2023-02-22T04:23:07.661Z,15.77
2023-02-22T04:25:39.012Z,14.37
2023-02-22T04:28:12.101Z,15.33
2023-02-22T04:31:00.221Z,14.10
2023-02-22T04:33:29.698Z,14.20
2023-02-22T04:35:58.177Z,14.33
2023-02-22T04:38:27.869Z,15.30
2023-02-22T04:40:57.919Z,15.63
2023-02-22T04:43:26.234Z,16.00
2023-02-22T04:46:00.570Z,16.33
2023-02-22T04:48:28.304Z,14.63
2023-02-22T04:50:56.030Z,14.40
2023-02-22T04:53:24.636Z,15.10
2023-02-22T04:55:54.122Z,15.90
2023-02-22T04:58:22.115Z,16.27
2023-02-22T05:00:50.091Z,15.33
2023-02-22T05:03:18.013Z,15.43
2023-02-22T05:05:45.881Z,16.23
2023-02-22T05:08:13.664Z,14.93
2023-02-22T05:10:41.397Z,17.80
2023-02-22T05:13:10.783Z,15.63
2023-02-22T05:15:38.593Z,15.17
2023-02-22T05:18:06.482Z,15.30
2023-02-22T05:20:36.516Z,15.57
2023-02-22T05:23:05.535Z,16.90
2023-02-22T05:25:34.252Z,14.63
2023-02-22T05:28:04.254Z,15.13
2023-02-22T05:30:36.864Z,15.43
2023-02-22T05:33:04.706Z,15.30
2023-02-22T05:35:32.969Z,14.63
2023-02-22T05:38:03.145Z,14.57
2023-02-22T05:40:31.478Z,14.63
2023-02-22T05:43:00.090Z,14.40
2023-02-22T05:45:29.417Z,14.27
2023-02-22T05:47:58.775Z,14.27
2023-02-22T05:50:27.156Z,13.73
2023-02-22T05:52:55.374Z,14.97
2023-02-22T05:55:24.764Z,14.87
2023-02-22T05:57:52.785Z,14.23
2023-02-22T06:00:28.187Z,15.90
2023-02-22T06:02:58.997Z,14.47
2023-02-22T06:05:27.590Z,15.37
2023-02-22T06:07:55.862Z,13.90
2023-02-22T06:10:23.764Z,14.67
2023-02-22T06:12:52.654Z,14.90
2023-02-22T06:15:21.755Z,14.30
2023-02-22T06:17:49.614Z,14.17
2023-02-22T06:20:22.582Z,17.97
2023-02-22T06:22:51.274Z,17.10
2023-02-22T06:25:21.100Z,19.80
2023-02-22T06:27:49.218Z,26.80
2023-02-22T06:30:19.548Z,29.83
2023-02-22T06:32:47.345Z,20.70
2023-02-22T06:35:15.599Z,29.83
2023-02-22T06:37:45.193Z,26.97
2023-02-22T06:40:13.868Z,21.93
2023-02-22T06:42:42.217Z,22.83
2023-02-22T06:45:10.986Z,25.40
2023-02-22T06:47:40.532Z,23.33
2023-02-22T06:50:09.843Z,25.80
2023-02-22T06:52:37.602Z,24.33
2023-02-22T06:55:07.316Z,30.47
2023-02-22T06:57:35.120Z,20.40
2023-02-22T07:00:03.334Z,27.00
2023-02-22T07:02:31.093Z,21.00
2023-02-22T07:04:58.883Z,25.53
2023-02-22T07:07:26.645Z,17.77
2023-02-22T07:09:54.422Z,21.33
2023-02-22T07:12:23.590Z,18.27
2023-02-22T07:14:51.367Z,18.57
2023-02-22T07:17:19.153Z,16.17
2023-02-22T07:19:46.971Z,15.20
2023-02-22T07:22:15.075Z,14.77
2023-02-22T07:24:42.811Z,15.87
2023-02-22T07:27:10.572Z,16.23
2023-02-22T07:29:39.690Z,17.40
2023-02-22T07:32:07.595Z,14.80
2023-02-22T07:34:35.513Z,14.37
2023-02-22T07:37:03.329Z,13.23
2023-02-22T07:39:31.275Z,13.30
2023-02-22T07:41:59.227Z,12.80
2023-02-22T07:44:29.875Z,11.10
2023-02-22T07:46:59.009Z,12.70
2023-02-22T07:49:26.816Z,12.07
2023-02-22T07:51:55.007Z,10.90
2023-02-22T07:54:22.820Z,11.00
2023-02-22T07:56:50.588Z,11.90
2023-02-22T07:59:18.351Z,11.20
2023-02-22T08:01:46.198Z,10.80
2023-02-22T08:04:15.305Z,11.70
2023-02-22T08:06:46.264Z,10.50
2023-02-22T08:09:14.050Z,11.30
2023-02-22T08:11:41.890Z,11.03
2023-02-22T08:14:09.629Z,12.33
2023-02-22T08:16:37.468Z,11.73
2023-02-22T08:19:05.249Z,11.90
2023-02-22T08:21:34.367Z,12.83
2023-02-22T08:24:02.126Z,12.73
2023-02-22T08:26:29.864Z,12.17
2023-02-22T08:28:57.684Z,12.60
2023-02-22T08:31:25.444Z,11.97
2023-02-22T08:33:53.370Z,12.37
2023-02-22T08:36:21.277Z,11.70
2023-02-22T08:38:50.390Z,11.77
2023-02-22T08:41:18.529Z,11.17
2023-02-22T08:43:46.501Z,12.07
2023-02-22T08:46:14.342Z,11.63
2023-02-22T08:48:50.951Z,11.23
2023-02-22T08:51:18.967Z,11.03
2023-02-22T08:53:46.813Z,12.27
2023-02-22T08:56:16.013Z,11.90
2023-02-22T08:58:43.824Z,10.93
2023-02-22T09:01:12.931Z,11.82
2023-02-22T09:03:41.879Z,11.07
2023-02-22T09:06:09.835Z,11.32
2023-02-22T09:08:37.636Z,11.13
2023-02-22T09:11:05.746Z,11.52
2023-02-22T09:13:35.028Z,11.20
2023-02-22T09:16:02.879Z,12.05
2023-02-22T09:18:43.502Z,11.85
2023-02-22T09:21:12.776Z,12.10
2023-02-22T09:23:41.551Z,11.32
2023-02-22T09:26:10.305Z,11.48
2023-02-22T09:28:39.461Z,11.65
2023-02-22T09:31:07.200Z,12.15
2023-02-22T09:33:34.995Z,10.05
2023-02-22T09:36:03.028Z,10.82
2023-02-22T09:38:32.618Z,11.27
2023-02-22T09:41:13.226Z,10.35
2023-02-22T09:43:49.443Z,10.02
2023-02-22T09:46:27.793Z,8.85
2023-02-22T09:49:01.051Z,9.43
2023-02-22T09:51:35.721Z,8.55
2023-02-22T09:54:07.858Z,7.90
2023-02-22T09:56:36.517Z,7.53
2023-02-22T09:59:08.925Z,7.82
2023-02-22T10:01:40.955Z,7.28
2023-02-22T10:04:18.513Z,7.13
2023-02-22T10:07:05.872Z,8.10
2023-02-22T10:09:42.677Z,7.78
2023-02-22T10:12:16.433Z,8.10
2023-02-22T10:15:11.885Z,7.82
2023-02-22T10:17:50.891Z,7.47
2023-02-22T10:20:40.985Z,7.55
2023-02-22T10:23:21.396Z,7.72
2023-02-22T10:25:53.658Z,7.55
2023-02-22T10:28:25.597Z,7.10
2023-02-22T10:30:59.126Z,6.68
2023-02-22T10:33:32.032Z,7.53
2023-02-22T10:35:59.975Z,6.88
2023-02-22T10:38:33.525Z,7.57
2023-02-22T10:41:14.180Z,6.00
2023-02-22T10:43:44.897Z,6.50
2023-02-22T10:46:18.353Z,6.20
2023-02-22T10:48:49.944Z,6.40
2023-02-22T10:51:17.732Z,6.45
2023-02-22T10:53:54.393Z,6.00
2023-02-22T10:56:24.398Z,5.82
2023-02-22T10:58:55.808Z,5.72
2023-02-22T11:01:29.434Z,5.72
2023-02-22T11:03:59.839Z,6.93
2023-02-22T11:06:28.024Z,6.07
2023-02-22T11:09:06.507Z,6.15
2023-02-22T11:11:34.622Z,5.72
2023-02-22T11:14:02.471Z,6.50
2023-02-22T11:16:36.188Z,6.78
2023-02-22T11:19:12.526Z,6.30
2023-02-22T11:21:40.898Z,5.93
2023-02-22T11:24:11.391Z,6.72
2023-02-22T11:26:43.746Z,5.68
2023-02-22T11:29:15.548Z,6.18
2023-02-22T11:31:46.463Z,6.05
2023-02-22T11:34:33.420Z,5.18
2023-02-22T11:37:17.536Z,4.97
2023-02-22T11:39:45.986Z,5.07
2023-02-22T11:42:23.734Z,5.22
2023-02-22T11:45:08.595Z,5.03
2023-02-22T11:47:49.067Z,5.25
2023-02-22T11:50:28.156Z,4.75
2023-02-22T11:53:04.760Z,4.30
2023-02-22T11:55:43.057Z,4.47
2023-02-22T11:58:31.020Z,4.03
2023-02-22T12:01:07.208Z,4.20
2023-02-22T12:04:10.723Z,4.57
2023-02-22T12:06:47.328Z,3.30
2023-02-22T12:09:24.118Z,3.38
2023-02-22T12:12:04.838Z,3.25
2023-02-22T12:14:45.229Z,3.67
2023-02-22T12:17:27.070Z,3.67
2023-02-22T12:20:02.384Z,3.58
2023-02-22T12:22:34.558Z,3.33
2023-02-22T12:25:09.789Z,2.70
2023-02-22T12:27:43.429Z,3.20
2023-02-22T12:30:17.740Z,3.40
2023-02-22T12:32:49.588Z,3.35
2023-02-22T12:35:24.622Z,3.65
2023-02-22T12:38:01.672Z,3.20
2023-02-22T12:40:36.525Z,3.33
2023-02-22T12:43:16.704Z,3.13
2023-02-22T12:45:50.178Z,2.78
2023-02-22T12:48:28.675Z,3.28
2023-02-22T12:51:03.191Z,3.10
2023-02-22T12:53:37.099Z,3.22
2023-02-22T12:56:17.369Z,3.15
2023-02-22T12:58:50.704Z,2.95
2023-02-22T13:01:22.029Z,3.30
2023-02-22T13:03:50.263Z,3.28
2023-02-22T13:06:41.614Z,3.88
2023-02-22T13:09:42.050Z,2.80
2023-02-22T13:12:18.349Z,3.10
2023-02-22T13:15:00.024Z,3.33
2023-02-22T13:17:37.592Z,3.00
2023-02-22T13:20:14.829Z,3.08
2023-02-22T13:22:48.867Z,2.67
2023-02-22T13:25:22.641Z,2.70
2023-02-22T13:27:55.429Z,2.85
2023-02-22T13:30:26.650Z,3.03
2023-02-22T13:33:15.507Z,2.72
2023-02-22T13:35:57.552Z,2.85
2023-02-22T13:38:51.364Z,2.60
2023-02-22T13:41:35.817Z,2.50
2023-02-22T13:44:23.161Z,2.67
2023-02-22T13:47:17.504Z,2.67
2023-02-22T13:50:16.174Z,2.47
2023-02-22T13:52:45.769Z,2.75
2023-02-22T13:55:20.892Z,2.67
2023-02-22T13:57:51.644Z,2.40
2023-02-22T14:00:24.732Z,2.67
2023-02-22T14:03:02.272Z,2.70
2023-02-22T14:05:51.442Z,2.80
2023-02-22T14:08:41.944Z,2.50
2023-02-22T14:11:56.938Z,3.30
2023-02-22T14:14:26.156Z,3.05
2023-02-22T14:17:25.565Z,2.90
2023-02-22T14:20:22.249Z,3.35
2023-02-22T14:22:52.857Z,3.47
2023-02-22T14:25:37.440Z,3.45
2023-02-22T14:28:07.609Z,3.78
2023-02-22T14:30:40.154Z,3.55
2023-02-22T14:33:45.316Z,4.00
2023-02-22T14:36:13.662Z,3.75
2023-02-22T14:38:45.005Z,3.92
2023-02-22T14:41:14.915Z,7.07
2023-02-22T14:43:43.563Z,4.15
2023-02-22T14:46:20.576Z,4.43
2023-02-22T14:48:50.470Z,4.15
2023-02-22T14:51:24.187Z,4.50
2023-02-22T14:53:57.485Z,4.07
2023-02-22T14:56:30.454Z,5.35
2023-02-22T14:59:09.986Z,4.85
2023-02-22T15:01:52.743Z,4.50
2023-02-22T15:04:28.551Z,4.30
2023-02-22T15:06:58.633Z,4.28
2023-02-22T15:09:30.560Z,4.55
2023-02-22T15:12:14.398Z,4.35
2023-02-22T15:14:47.493Z,4.70
2023-02-22T15:17:20.852Z,3.78
2023-02-22T15:19:50.024Z,4.68
2023-02-22T15:22:23.606Z,4.45
2023-02-22T15:24:59.757Z,5.07
2023-02-22T15:27:28.455Z,4.55
2023-02-22T15:30:04.354Z,4.53
2023-02-22T15:32:36.674Z,3.92
2023-02-22T15:35:16.613Z,4.53
2023-02-22T15:37:45.417Z,4.03
2023-02-22T15:40:18.364Z,4.45
2023-02-22T15:42:48.502Z,4.57
2023-02-22T15:45:19.875Z,4.18
2023-02-22T15:47:50.252Z,4.20
2023-02-22T15:50:23.789Z,5.07
2023-02-22T15:52:58.260Z,4.50
2023-02-22T15:55:29.151Z,4.72
2023-02-22T15:58:01.615Z,4.55
2023-02-22T16:00:36.223Z,4.20
2023-02-22T16:03:07.729Z,4.40
2023-02-22T16:05:40.972Z,4.35
2023-02-22T16:08:18.122Z,4.32
2023-02-22T16:10:54.305Z,3.60
2023-02-22T16:13:33.020Z,3.90
2023-02-22T16:16:03.098Z,4.03
2023-02-22T16:18:34.773Z,3.90
2023-02-22T16:21:07.813Z,4.35
2023-02-22T16:23:45.468Z,4.85
2023-02-22T16:26:23.613Z,4.45
2023-02-22T16:28:52.999Z,4.32
2023-02-22T16:31:22.342Z,4.50
2023-02-22T16:33:52.036Z,4.75
2023-02-22T16:36:21.740Z,4.07
2023-02-22T16:38:51.740Z,4.25
2023-02-22T16:41:20.379Z,5.10
2023-02-22T16:43:51.169Z,4.95
2023-02-22T16:46:20.256Z,5.03
2023-02-22T16:48:48.262Z,4.47
2023-02-22T16:51:22.594Z,4.45
2023-02-22T16:53:51.108Z,4.93
2023-02-22T16:56:21.197Z,4.72
2023-02-22T16:58:52.727Z,5.20
2023-02-22T17:01:23.262Z,5.32
2023-02-22T17:03:53.799Z,5.15
2023-02-22T17:06:23.001Z,5.03
2023-02-22T17:08:51.956Z,8.55
2023-02-22T17:11:20.477Z,7.25
2023-02-22T17:13:51.689Z,6.75
2023-02-22T17:16:19.862Z,8.52
2023-02-22T17:18:47.842Z,6.40
2023-02-22T17:21:16.611Z,11.30
2023-02-22T17:23:46.847Z,10.43
2023-02-22T17:26:18.053Z,6.75
2023-02-22T17:28:46.098Z,5.53
2023-02-22T17:31:21.784Z,5.55
2023-02-22T17:33:51.305Z,6.13
2023-02-22T17:36:20.737Z,5.60
2023-02-22T17:38:50.003Z,6.05
2023-02-22T17:41:17.929Z,6.10
2023-02-22T17:43:45.679Z,6.85
2023-02-22T17:46:13.475Z,6.78
2023-02-22T17:48:41.229Z,7.32
2023-02-22T17:51:11.633Z,6.55
2023-02-22T17:53:39.942Z,7.25
2023-02-22T17:56:10.458Z,6.75
2023-02-22T17:58:38.457Z,7.53
2023-02-22T18:01:06.348Z,8.57
2023-02-22T18:03:34.753Z,8.30
2023-02-22T18:06:02.676Z,8.68
2023-02-22T18:08:32.149Z,8.63
2023-02-22T18:11:05.087Z,8.07
2023-02-22T18:13:34.298Z,8.15
2023-02-22T18:16:04.886Z,8.48
2023-02-22T18:18:32.970Z,7.93
2023-02-22T18:21:00.738Z,7.88
2023-02-22T18:23:33.330Z,8.60
2023-02-22T18:26:11.678Z,8.38
2023-02-22T18:28:41.198Z,8.98
2023-02-22T18:31:09.992Z,8.82
2023-02-22T18:33:37.835Z,8.95
2023-02-22T18:36:06.443Z,9.38
2023-02-22T18:38:34.257Z,9.02
2023-02-22T18:41:03.372Z,9.32
2023-02-22T18:43:34.157Z,9.50
2023-02-22T18:46:12.037Z,9.25
2023-02-22T18:48:40.300Z,9.38
2023-02-22T18:51:10.275Z,9.35
2023-02-22T18:53:40.096Z,10.73
2023-02-22T18:56:10.064Z,9.70
2023-02-22T18:58:38.826Z,10.15
2023-02-22T19:01:07.852Z,9.77
2023-02-22T19:03:38.380Z,10.23
2023-02-22T19:06:08.889Z,11.35
2023-02-22T19:08:39.698Z,11.82
2023-02-22T19:11:08.935Z,10.82
2023-02-22T19:13:37.123Z,10.43
2023-02-22T19:16:07.220Z,11.45
2023-02-22T19:18:35.340Z,11.07
2023-02-22T19:21:08.523Z,10.77
2023-02-22T19:23:37.010Z,11.80
2023-02-22T19:26:09.234Z,11.07
2023-02-22T19:28:37.034Z,10.27
2023-02-22T19:31:12.800Z,10.93
2023-02-22T19:33:40.751Z,11.52
2023-02-22T19:36:11.919Z,12.57
2023-02-22T19:38:40.411Z,40.55
2023-02-22T19:41:10.378Z,20.85
2023-02-22T19:43:38.336Z,11.98
2023-02-22T19:46:06.792Z,11.98
2023-02-22T19:48:34.946Z,12.75
2023-02-22T19:51:06.315Z,10.93
2023-02-22T19:53:35.740Z,11.30
2023-02-22T19:56:07.237Z,10.68
2023-02-22T19:58:36.659Z,11.63
2023-02-22T20:01:12.303Z,11.52
2023-02-22T20:03:40.982Z,12.52
2023-02-22T20:06:10.032Z,12.82
2023-02-22T20:08:42.153Z,13.18
2023-02-22T20:11:11.360Z,13.65
2023-02-22T20:13:39.659Z,13.57
2023-02-22T20:16:09.850Z,15.73
2023-02-22T20:18:37.912Z,14.80
2023-02-22T20:21:09.521Z,15.05
2023-02-22T20:23:40.622Z,16.15
2023-02-22T20:26:16.222Z,15.93
2023-02-22T20:28:44.258Z,16.40
2023-02-22T20:31:14.152Z,16.35
2023-02-22T20:33:42.755Z,16.35
2023-02-22T20:36:11.932Z,17.23
2023-02-22T20:38:41.563Z,16.25
2023-02-22T20:41:10.683Z,16.83
2023-02-22T20:43:39.576Z,18.85
2023-02-22T20:46:08.457Z,18.48
2023-02-22T20:48:36.332Z,18.42
2023-02-22T20:51:07.556Z,18.25
2023-02-22T20:53:35.632Z,18.27
2023-02-22T20:56:05.362Z,20.00
2023-02-22T20:58:33.249Z,23.13
2023-02-22T21:01:05.192Z,22.60
2023-02-22T21:03:33.855Z,22.52
2023-02-22T21:06:01.892Z,22.98
2023-02-22T21:08:31.214Z,22.95
2023-02-22T21:10:59.638Z,22.90
2023-02-22T21:13:28.890Z,24.45
2023-02-22T21:15:56.880Z,24.05
2023-02-22T21:18:25.185Z,24.92
2023-02-22T21:20:53.842Z,24.13
2023-02-22T21:23:21.664Z,23.35
2023-02-22T21:25:53.063Z,24.23
2023-02-22T21:28:21.150Z,23.63
2023-02-22T21:30:50.458Z,23.95
2023-02-22T21:33:18.395Z,23.77
2023-02-22T21:35:47.590Z,23.02
2023-02-22T21:38:15.436Z,22.80
2023-02-22T21:40:46.446Z,23.90
2023-02-22T21:43:14.269Z,24.85
2023-02-22T21:45:42.086Z,26.25
2023-02-22T21:48:11.236Z,26.23
2023-02-22T21:50:39.208Z,27.50
2023-02-22T21:53:07.345Z,27.67
2023-02-22T21:55:36.295Z,25.75
2023-02-22T21:58:04.141Z,28.02
2023-02-22T22:00:38.132Z,28.75
2023-02-22T22:03:12.584Z,29.58
2023-02-22T22:05:45.235Z,28.42
2023-02-22T22:08:19.388Z,30.77
2023-02-22T22:10:55.076Z,29.45
2023-02-22T22:13:23.416Z,31.42
2023-02-22T22:15:51.396Z,29.98
2023-02-22T22:18:19.230Z,30.33
2023-02-22T22:20:51.717Z,32.15
2023-02-22T22:23:19.505Z,30.42
2023-02-22T22:25:50.979Z,30.73
2023-02-22T22:28:18.759Z,29.80
2023-02-22T22:30:46.526Z,31.23
2023-02-22T22:33:14.807Z,32.80
2023-02-22T22:35:42.613Z,31.20
2023-02-22T22:38:14.382Z,31.83
2023-02-22T22:40:42.247Z,33.08
2023-02-22T22:43:10.038Z,32.00
2023-02-22T22:45:38.578Z,33.97
2023-02-22T22:48:06.619Z,33.50
2023-02-22T22:50:35.453Z,32.20
2023-02-22T22:53:03.186Z,33.80
2023-02-22T22:55:32.594Z,32.13
2023-02-22T22:58:00.825Z,33.40
2023-02-22T23:00:36.037Z,33.75
2023-02-22T23:03:05.441Z,33.40
2023-02-22T23:05:38.217Z,34.25
2023-02-22T23:08:10.521Z,33.42
2023-02-22T23:10:41.172Z,34.00
2023-02-22T23:13:10.830Z,32.95
2023-02-22T23:15:43.746Z,33.45
2023-02-22T23:18:12.396Z,35.17
2023-02-22T23:20:40.224Z,35.92
2023-02-22T23:23:14.548Z,35.70
2023-02-22T23:25:43.700Z,34.88
2023-02-22T23:28:14.747Z,34.90
2023-02-22T23:30:42.974Z,35.58
2023-02-22T23:33:11.136Z,35.22
2023-02-22T23:35:38.945Z,34.72
2023-02-22T23:38:08.308Z,37.20
2023-02-22T23:40:36.844Z,37.15
2023-02-22T23:43:07.548Z,35.85
2023-02-22T23:45:38.538Z,36.88
2023-02-22T23:48:07.041Z,37.38
2023-02-22T23:50:36.390Z,36.88
2023-02-22T23:53:05.997Z,39.40
2023-02-22T23:55:39.151Z,39.50
2023-02-22T23:58:08.318Z,39.80
